Terminal Aerodrome Forecast
Issued by NWS

Home | Current Version | Previous Version | Text Only | Print | Product List | Glossary On
Versions: 1 2 3 4 5 6 7 8 9 10 11 12
000
FTUS42 KTAE 301100
TAFVLD
TAF
KVLD 301139Z 3012/3112 00000KT P6SM FEW010
     FM301300 15003KT P6SM FEW030
     FM301600 16003KT P6SM VCTS SCT035CB BKN050
      TEMPO 3020/3024 5SM TSRA BKN035CB
     FM310000 15003KT P6SM BKN250=

USA.gov is the U.S. government's official web portal to all federal, state and local government web resources and services.